createdAt,value
2018-11-14T00:00:59.817Z,102808.41
2018-11-14T00:03:36.748Z,102813.45
2018-11-14T00:06:14.277Z,102818.34
2018-11-14T00:08:53.456Z,102828.16
2018-11-14T00:11:28.211Z,102826.66
2018-11-14T00:14:03.863Z,102825.20
2018-11-14T00:16:39.982Z,102836.01
2018-11-14T00:19:20.024Z,102828.47
2018-11-14T00:21:58.626Z,102824.64
2018-11-14T00:24:36.320Z,102828.33
2018-11-14T00:27:13.484Z,102832.63
2018-11-14T00:29:51.286Z,102842.51
2018-11-14T00:32:28.383Z,102844.20
2018-11-14T00:35:07.527Z,102851.08
2018-11-14T00:37:44.401Z,102843.58
2018-11-14T00:40:23.209Z,102844.34
2018-11-14T00:43:00.383Z,102843.31
2018-11-14T00:45:39.253Z,102849.77
2018-11-14T00:48:19.186Z,102857.61
2018-11-14T00:50:55.876Z,102861.48
2018-11-14T00:53:28.932Z,102859.20
2018-11-14T00:56:06.729Z,102863.59
2018-11-14T00:58:43.635Z,102871.02
2018-11-14T01:01:21.274Z,102860.17
2018-11-14T01:04:00.043Z,102860.98
2018-11-14T01:06:37.573Z,102861.48
2018-11-14T01:09:16.623Z,102853.14
2018-11-14T01:11:55.362Z,102854.52
2018-11-14T01:14:33.151Z,102855.22
2018-11-14T01:17:10.984Z,102861.67
2018-11-14T01:19:48.721Z,102853.71
2018-11-14T01:22:28.370Z,102844.10
2018-11-14T01:25:05.455Z,102851.44
2018-11-14T01:27:44.691Z,102844.56
2018-11-14T01:30:20.568Z,102839.34
2018-11-14T01:32:50.252Z,102847.25
2018-11-14T01:35:19.868Z,102846.30
2018-11-14T01:37:49.267Z,102851.52
2018-11-14T01:40:22.024Z,102863.70
2018-11-14T01:42:52.596Z,102857.51
2018-11-14T01:45:21.970Z,102841.33
2018-11-14T01:47:51.467Z,102853.25
2018-11-14T01:50:20.794Z,102858.05
2018-11-14T01:52:50.121Z,102844.69
2018-11-14T01:55:20.597Z,102853.14
2018-11-14T01:57:50.060Z,102860.76
2018-11-14T02:01:23.073Z,102851.34
2018-11-14T02:03:52.382Z,102854.11
2018-11-14T02:06:21.730Z,102858.52
2018-11-14T02:08:51.135Z,102856.49
2018-11-14T02:11:20.435Z,102848.73
2018-11-14T02:13:50.204Z,102857.45
2018-11-14T02:16:19.571Z,102854.03
2018-11-14T02:18:48.901Z,102856.23
2018-11-14T02:21:18.207Z,102854.03
2018-11-14T02:23:47.501Z,102850.88
2018-11-14T02:26:16.823Z,102849.50
2018-11-14T02:28:46.181Z,102837.23
2018-11-14T02:31:15.506Z,102835.35
2018-11-14T02:33:44.847Z,102839.19
2018-11-14T02:36:14.162Z,102840.08
2018-11-14T02:38:43.495Z,102841.88
2018-11-14T02:41:12.811Z,102841.27
2018-11-14T02:43:42.134Z,102858.64
2018-11-14T02:46:11.567Z,102850.92
2018-11-14T02:48:40.939Z,102845.31
2018-11-14T02:51:27.845Z,102851.61
2018-11-14T02:53:57.261Z,102845.12
2018-11-14T02:56:26.541Z,102830.75
2018-11-14T02:58:55.923Z,102825.67
2018-11-14T03:01:25.283Z,102817.29
2018-11-14T03:03:54.624Z,102829.59
2018-11-14T03:06:23.943Z,102828.55
2018-11-14T03:08:53.318Z,102821.71
2018-11-14T03:11:22.627Z,102820.91
2018-11-14T03:13:52.005Z,102831.04
2018-11-14T03:16:21.358Z,102824.23
2018-11-14T03:18:50.721Z,102832.76
2018-11-14T03:21:20.571Z,102828.38
2018-11-14T03:23:50.191Z,102820.54
2018-11-14T03:26:19.562Z,102808.63
2018-11-14T03:28:48.906Z,102827.39
2018-11-14T03:31:18.231Z,102816.72
2018-11-14T03:33:47.606Z,102815.75
2018-11-14T03:36:18.829Z,102813.80
2018-11-14T03:38:49.202Z,102806.15
2018-11-14T03:41:18.542Z,102808.07
2018-11-14T03:43:47.894Z,102802.95
2018-11-14T03:46:17.252Z,102797.03
2018-11-14T03:48:46.857Z,102795.38
2018-11-14T03:51:16.231Z,102799.41
2018-11-14T03:53:45.557Z,102799.91
2018-11-14T03:56:18.124Z,102797.83
2018-11-14T03:58:47.461Z,102803.13
2018-11-14T04:01:16.801Z,102789.71
2018-11-14T04:03:46.146Z,102798.55
2018-11-14T04:06:15.542Z,102796.44
2018-11-14T04:08:44.894Z,102796.47
2018-11-14T04:11:14.258Z,102805.77
2018-11-14T04:13:43.586Z,102799.70
2018-11-14T04:16:13.036Z,102801.53
2018-11-14T04:18:42.406Z,102798.57
2018-11-14T04:21:11.794Z,102810.41
2018-11-14T04:23:44.958Z,102810.48
2018-11-14T04:26:14.365Z,102803.98
2018-11-14T04:28:43.805Z,102800.20
2018-11-14T04:31:13.170Z,102796.32
2018-11-14T04:34:13.373Z,102792.47
2018-11-14T04:36:42.771Z,102788.44
2018-11-14T04:39:12.520Z,102799.82
2018-11-14T04:41:41.901Z,102791.63
2018-11-14T04:44:11.201Z,102797.81
2018-11-14T04:46:40.537Z,102809.23
2018-11-14T04:49:09.851Z,102802.69
2018-11-14T04:51:39.173Z,102811.42
2018-11-14T04:54:08.497Z,102817.57
2018-11-14T04:56:37.859Z,102822.30
2018-11-14T04:59:07.194Z,102818.45
2018-11-14T05:01:36.573Z,102819.77
2018-11-14T05:04:05.979Z,102811.49
2018-11-14T05:06:36.558Z,102819.77
2018-11-14T05:09:09.226Z,102820.19
2018-11-14T05:11:38.591Z,102826.67
2018-11-14T05:14:08.836Z,102823.27
2018-11-14T05:16:38.214Z,102828.50
2018-11-14T05:19:07.606Z,102831.47
2018-11-14T05:21:36.975Z,102833.13
2018-11-14T05:24:06.367Z,102831.36
2018-11-14T05:26:35.716Z,102830.41
2018-11-14T05:29:05.128Z,102832.06
2018-11-14T05:31:34.490Z,102831.11
2018-11-14T05:34:03.848Z,102833.20
2018-11-14T05:36:33.198Z,102839.73
2018-11-14T05:39:02.514Z,102833.08
2018-11-14T05:41:31.833Z,102841.28
2018-11-14T05:44:01.227Z,102837.63
2018-11-14T05:46:30.608Z,102836.56
2018-11-14T05:48:59.934Z,102840.65
2018-11-14T05:51:29.250Z,102831.20
2018-11-14T05:53:58.992Z,102832.52
2018-11-14T05:56:28.363Z,102829.94
2018-11-14T05:58:57.766Z,102834.23
2018-11-14T06:01:27.117Z,102835.16
2018-11-14T06:03:56.443Z,102831.19
2018-11-14T06:06:27.067Z,102834.75
2018-11-14T06:08:56.940Z,102833.20
2018-11-14T06:11:26.306Z,102845.27
2018-11-14T06:13:55.669Z,102844.68
2018-11-14T06:16:24.982Z,102842.48
2018-11-14T06:18:54.352Z,102843.33
2018-11-14T06:21:23.746Z,102848.39
2018-11-14T06:23:53.108Z,102848.05
2018-11-14T06:26:22.463Z,102852.94
2018-11-14T06:28:51.821Z,102845.76
2018-11-14T06:31:21.143Z,102842.34
2018-11-14T06:33:50.537Z,102842.65
2018-11-14T06:36:19.898Z,102845.42
2018-11-14T06:38:49.275Z,102838.00
2018-11-14T06:41:18.680Z,102849.80
2018-11-14T06:43:48.035Z,102855.60
2018-11-14T06:46:17.350Z,102856.48
2018-11-14T06:48:46.711Z,102852.57
2018-11-14T06:51:16.059Z,102847.97
2018-11-14T06:53:45.480Z,102845.81
2018-11-14T06:56:14.833Z,102843.20
2018-11-14T06:58:44.282Z,102842.86
2018-11-14T07:01:13.547Z,102835.49
2018-11-14T07:03:42.953Z,102832.07
2018-11-14T07:06:12.319Z,102840.45
2018-11-14T07:08:41.702Z,102828.77
2018-11-14T07:11:11.122Z,102832.81
2018-11-14T07:13:40.422Z,102836.46
2018-11-14T07:16:09.743Z,102840.92
2018-11-14T07:18:39.090Z,102837.96
2018-11-14T07:21:08.442Z,102841.54
2018-11-14T07:23:37.877Z,102842.96
2018-11-14T07:26:07.246Z,102847.00
2018-11-14T07:28:36.689Z,102843.16
2018-11-14T07:31:06.536Z,102845.42
2018-11-14T07:33:35.899Z,102848.58
2018-11-14T07:36:06.502Z,102851.31
2018-11-14T07:38:38.640Z,102854.61
2018-11-14T07:41:10.169Z,102862.16
2018-11-14T07:43:40.094Z,102856.58
2018-11-14T07:46:10.048Z,102867.22
2018-11-14T07:48:39.761Z,102865.22
2018-11-14T07:51:09.142Z,102874.56
2018-11-14T07:53:38.555Z,102870.83
2018-11-14T07:56:07.963Z,102868.41
2018-11-14T07:58:37.403Z,102871.63
2018-11-14T08:01:07.382Z,102873.55
2018-11-14T08:03:36.881Z,102874.97
2018-11-14T08:06:06.349Z,102849.33
2018-11-14T08:08:35.715Z,102874.03
2018-11-14T08:11:07.123Z,102868.98
2018-11-14T08:13:37.486Z,102874.72
2018-11-14T08:16:07.119Z,102864.17
2018-11-14T08:18:36.528Z,102859.30
2018-11-14T08:21:06.984Z,102858.34
2018-11-14T08:23:36.413Z,102860.00
2018-11-14T08:26:06.789Z,102864.30
2018-11-14T08:28:36.115Z,102874.77
2018-11-14T08:31:06.350Z,102867.73
2018-11-14T08:33:35.735Z,102872.00
2018-11-14T08:36:06.696Z,102867.47
2018-11-14T08:38:36.124Z,102862.05
2018-11-14T08:41:06.759Z,102872.41
2018-11-14T08:43:36.101Z,102871.02
2018-11-14T08:46:07.342Z,102882.79
2018-11-14T08:48:36.770Z,102882.41
2018-11-14T08:51:06.873Z,102889.05
2018-11-14T08:53:36.296Z,102893.63
2018-11-14T08:56:06.350Z,102902.23
2018-11-14T08:58:35.700Z,102895.88
2018-11-14T09:01:05.335Z,102894.59
2018-11-14T09:03:34.751Z,102896.02
2018-11-14T09:06:04.129Z,102891.69
2018-11-14T09:08:33.583Z,102893.70
2018-11-14T09:11:03.092Z,102894.30
2018-11-14T09:13:32.499Z,102891.69
2018-11-14T09:16:01.889Z,102885.92
2018-11-14T09:18:31.315Z,102883.83
2018-11-14T09:21:01.219Z,102880.79
2018-11-14T09:23:30.586Z,102883.48
2018-11-14T09:25:59.953Z,102885.81
2018-11-14T09:28:29.315Z,102891.22
2018-11-14T09:30:58.655Z,102890.02
2018-11-14T09:33:28.066Z,102894.12
2018-11-14T09:35:57.383Z,102895.00
2018-11-14T09:38:26.780Z,102903.17
2018-11-14T09:40:56.156Z,102906.34
2018-11-14T09:43:25.431Z,102869.53
2018-11-14T09:45:54.774Z,102905.91
2018-11-14T09:48:24.257Z,102912.29
2018-11-14T09:50:53.642Z,102916.02
2018-11-14T09:53:23.121Z,102927.75
2018-11-14T09:55:52.401Z,102919.71
2018-11-14T09:58:21.757Z,102915.64
2018-11-14T10:00:51.192Z,102912.38
2018-11-14T10:03:20.522Z,102900.87
2018-11-14T10:05:49.920Z,102905.48
2018-11-14T10:08:19.246Z,102899.50
2018-11-14T10:10:48.608Z,102888.64
2018-11-14T10:13:18.738Z,102879.54
2018-11-14T10:15:48.166Z,102877.49
2018-11-14T10:18:17.475Z,102889.80
2018-11-14T10:20:46.834Z,102899.43
2018-11-14T10:23:16.171Z,102899.52
2018-11-14T10:25:45.489Z,102895.58
2018-11-14T10:28:14.900Z,102895.64
2018-11-14T10:30:44.285Z,102894.78
2018-11-14T10:33:13.582Z,102886.03
2018-11-14T10:35:42.923Z,102890.02
2018-11-14T10:38:12.251Z,102892.73
2018-11-14T10:40:41.587Z,102887.55
2018-11-14T10:43:10.967Z,102894.19
2018-11-14T10:45:40.269Z,102897.39
2018-11-14T10:48:09.649Z,102891.77
2018-11-14T10:50:39.005Z,102887.03
2018-11-14T10:53:08.346Z,102883.61
2018-11-14T10:55:37.772Z,102877.98
2018-11-14T10:58:07.154Z,102877.98
2018-11-14T11:00:41.662Z,102878.78
2018-11-14T11:03:16.980Z,102877.81
2018-11-14T11:07:57.205Z,102867.14
2018-11-14T11:10:31.823Z,102866.20
2018-11-14T11:13:06.515Z,102862.75
2018-11-14T11:15:41.128Z,102861.89
2018-11-14T11:18:12.459Z,102859.32
2018-11-14T11:20:41.859Z,102866.40
2018-11-14T11:23:11.253Z,102873.53
2018-11-14T11:25:40.824Z,102873.62
2018-11-14T11:28:10.176Z,102869.83
2018-11-14T11:30:39.855Z,102866.52
2018-11-14T11:33:09.207Z,102862.73
2018-11-14T11:35:38.591Z,102858.11
2018-11-14T11:38:07.943Z,102862.73
2018-11-14T11:40:37.334Z,102860.30
2018-11-14T11:43:06.997Z,102860.06
2018-11-14T11:45:36.800Z,102854.56
2018-11-14T11:48:06.268Z,102862.22
2018-11-14T11:50:35.577Z,102855.09
2018-11-14T11:58:04.472Z,102853.65
2018-11-14T12:00:33.945Z,102848.27
2018-11-14T12:03:03.210Z,102839.77
2018-11-14T12:05:32.562Z,102846.08
2018-11-14T12:08:01.900Z,102845.36
2018-11-14T12:10:31.366Z,102846.86
2018-11-14T12:13:00.721Z,102843.04
2018-11-14T12:15:30.118Z,102844.04
2018-11-14T12:17:59.470Z,102846.78
2018-11-14T12:20:28.839Z,102842.05
2018-11-14T12:22:58.197Z,102834.23
2018-11-14T12:25:27.537Z,102832.59
2018-11-14T12:27:56.887Z,102828.42
2018-11-14T12:30:26.276Z,102825.94
2018-11-14T12:32:55.590Z,102824.30
2018-11-14T12:35:24.935Z,102820.11
2018-11-14T12:37:54.323Z,102823.88
2018-11-14T12:40:23.693Z,102818.00
2018-11-14T12:42:53.063Z,102822.54
2018-11-14T12:45:22.425Z,102826.05
2018-11-14T12:47:51.873Z,102824.62
2018-11-14T12:50:21.218Z,102824.91
2018-11-14T12:52:50.653Z,102824.77
2018-11-14T12:55:20.046Z,102818.52
2018-11-14T12:57:49.428Z,102812.38
2018-11-14T13:00:19.906Z,102813.30
2018-11-14T13:02:49.256Z,102812.91
2018-11-14T13:05:18.588Z,102810.88
2018-11-14T13:07:48.005Z,102808.45
2018-11-14T13:10:18.542Z,102814.11
2018-11-14T13:12:48.872Z,102810.57
2018-11-14T13:15:19.182Z,102809.09
2018-11-14T13:17:48.514Z,102796.92
2018-11-14T13:20:21.687Z,102801.41
2018-11-14T13:22:51.015Z,102798.02
2018-11-14T13:25:20.375Z,102800.78
2018-11-14T13:27:50.242Z,102793.80
2018-11-14T13:30:20.886Z,102794.62
2018-11-14T13:32:50.989Z,102788.83
2018-11-14T13:35:21.287Z,102790.02
2018-11-14T13:37:51.208Z,102788.09
2018-11-14T13:40:20.601Z,102786.94
2018-11-14T13:42:49.972Z,102796.91
2018-11-14T13:45:19.746Z,102796.33
2018-11-14T13:47:49.105Z,102796.20
2018-11-14T13:50:21.200Z,102796.93
2018-11-14T13:52:50.382Z,102797.23
2018-11-14T13:55:20.697Z,102790.98
2018-11-14T13:57:51.070Z,102790.88
2018-11-14T14:00:21.567Z,102781.91
2018-11-14T14:02:52.039Z,102792.30
2018-11-14T14:05:22.684Z,102785.61
2018-11-14T14:07:52.030Z,102777.22
2018-11-14T14:10:21.359Z,102791.16
2018-11-14T14:12:52.008Z,102787.16
2018-11-14T14:15:23.639Z,102787.09
2018-11-14T14:17:52.984Z,102790.52
2018-11-14T14:20:22.902Z,102788.72
2018-11-14T14:22:52.252Z,102789.20
2018-11-14T14:25:22.498Z,102784.03
2018-11-14T14:27:51.823Z,102784.95
2018-11-14T14:30:22.531Z,102789.78
2018-11-14T14:32:51.905Z,102785.84
2018-11-14T14:35:22.118Z,102778.38
2018-11-14T14:37:51.518Z,102787.11
2018-11-14T14:40:22.062Z,102783.15
2018-11-14T14:42:51.690Z,102780.44
2018-11-14T14:45:25.491Z,102781.69
2018-11-14T14:47:54.821Z,102781.97
2018-11-14T14:50:24.185Z,102778.31
2018-11-14T14:52:53.562Z,102781.66
2018-11-14T14:55:24.272Z,102776.28
2018-11-14T14:57:53.627Z,102773.48
2018-11-14T15:00:27.299Z,102782.16
2018-11-14T15:02:56.925Z,102774.10
2018-11-14T15:05:26.406Z,102777.10
2018-11-14T15:07:55.771Z,102779.56
2018-11-14T15:10:25.325Z,102777.69
2018-11-14T15:12:54.741Z,102783.71
2018-11-14T15:15:24.592Z,102785.30
2018-11-14T15:17:54.081Z,102776.42
2018-11-14T15:20:24.955Z,102781.61
2018-11-14T15:22:54.838Z,102774.48
2018-11-14T15:25:24.739Z,102780.13
2018-11-14T15:27:54.430Z,102780.87
2018-11-14T15:30:26.290Z,102784.70
2018-11-14T15:32:57.028Z,102790.32
2018-11-14T15:35:26.678Z,102788.45
2018-11-14T15:37:56.372Z,102791.01
2018-11-14T15:40:27.072Z,102792.70
2018-11-14T15:42:57.738Z,102795.66
2018-11-14T15:45:28.556Z,102804.34
2018-11-14T15:47:58.240Z,102795.07
2018-11-14T15:50:29.006Z,102793.22
2018-11-14T15:52:59.018Z,102790.47
2018-11-14T15:55:28.721Z,102797.89
2018-11-14T15:57:58.477Z,102798.27
2018-11-14T16:00:29.275Z,102793.77
2018-11-14T16:02:58.775Z,102789.20
2018-11-14T16:05:29.389Z,102795.68
2018-11-14T16:08:00.151Z,102795.91
2018-11-14T16:10:30.824Z,102790.39
2018-11-14T16:13:00.463Z,102790.77
2018-11-14T16:15:34.407Z,102788.00
2018-11-14T16:18:04.126Z,102787.42
2018-11-14T16:20:33.806Z,102791.16
2018-11-14T16:23:03.421Z,102790.59
2018-11-14T16:25:33.104Z,102781.27
2018-11-14T16:28:03.126Z,102788.11
2018-11-14T16:30:35.972Z,102785.27
2018-11-14T16:33:07.563Z,102785.06
2018-11-14T16:35:37.196Z,102774.38
2018-11-14T16:38:07.052Z,102778.50
2018-11-14T16:40:36.654Z,102790.62
2018-11-14T16:43:07.897Z,102789.52
2018-11-14T16:45:37.614Z,102783.67
2018-11-14T16:48:07.287Z,102784.84
2018-11-14T16:50:36.932Z,102779.75
2018-11-14T16:53:06.687Z,102780.03
2018-11-14T16:55:36.335Z,102781.58
2018-11-14T16:58:06.946Z,102774.84
2018-11-14T17:00:36.725Z,102785.17
2018-11-14T17:03:07.377Z,102783.70
2018-11-14T17:05:36.923Z,102780.50
2018-11-14T17:08:06.804Z,102786.47
2018-11-14T17:10:36.428Z,102774.88
2018-11-14T17:13:06.803Z,102780.39
2018-11-14T17:15:36.484Z,102784.09
2018-11-14T17:18:06.768Z,102781.64
2018-11-14T17:20:36.656Z,102776.50
2018-11-14T17:23:06.660Z,102775.48
2018-11-14T17:25:36.119Z,102791.36
2018-11-14T17:28:06.403Z,102791.12
2018-11-14T17:30:35.777Z,102787.39
2018-11-14T17:33:07.123Z,102791.57
2018-11-14T17:35:36.475Z,102789.14
2018-11-14T17:38:06.736Z,102785.44
2018-11-14T17:40:36.148Z,102787.84
2018-11-14T17:43:06.624Z,102785.09
2018-11-14T17:45:35.969Z,102784.98
2018-11-14T17:48:06.103Z,102791.06
2018-11-14T17:50:37.177Z,102793.08
2018-11-14T17:53:06.534Z,102791.17
2018-11-14T17:55:35.972Z,102794.98
2018-11-14T17:58:06.399Z,102795.73
2018-11-14T18:00:35.755Z,102806.86
2018-11-14T18:03:06.121Z,102806.69
2018-11-14T18:05:35.415Z,102799.55
2018-11-14T18:08:06.229Z,102800.67
2018-11-14T18:10:35.552Z,102799.17
2018-11-14T18:13:06.266Z,102798.11
2018-11-14T18:15:35.642Z,102797.01
2018-11-14T18:18:06.347Z,102797.78
2018-11-14T18:20:35.735Z,102794.62
2018-11-14T18:23:06.106Z,102791.24
2018-11-14T18:25:35.459Z,102803.86
2018-11-14T18:28:06.291Z,102795.48
2018-11-14T18:30:35.703Z,102800.63
2018-11-14T18:33:29.909Z,102800.20
2018-11-14T18:35:59.282Z,102803.67
2018-11-14T18:38:28.654Z,102808.47
2018-11-14T18:40:58.060Z,102802.29
2018-11-14T18:43:27.465Z,102801.33
2018-11-14T18:45:57.024Z,102802.45
2018-11-14T18:48:26.302Z,102797.18
2018-11-14T18:50:55.639Z,102798.77
2018-11-14T18:53:25.173Z,102794.42
2018-11-14T18:55:54.538Z,102796.61
2018-11-14T18:58:23.932Z,102794.42
2018-11-14T19:00:53.288Z,102789.89
2018-11-14T19:04:25.693Z,102792.31
2018-11-14T19:06:55.282Z,102798.05
2018-11-14T19:09:24.565Z,102797.58
2018-11-14T19:11:54.059Z,102797.50
2018-11-14T19:14:23.446Z,102790.20
2018-11-14T19:16:52.863Z,102796.16
2018-11-14T19:19:22.292Z,102793.39
2018-11-14T19:21:51.680Z,102789.78
2018-11-14T19:24:21.057Z,102784.82
2018-11-14T19:26:50.362Z,102780.78
2018-11-14T19:29:19.733Z,102780.63
2018-11-14T19:31:49.129Z,102777.91
2018-11-14T19:34:18.476Z,102777.91
2018-11-14T19:36:47.836Z,102780.86
2018-11-14T19:39:17.266Z,102776.64
2018-11-14T19:41:46.625Z,102775.06
2018-11-14T19:44:16.074Z,102775.79
2018-11-14T19:46:45.648Z,102773.52
2018-11-14T19:49:15.429Z,102779.09
2018-11-14T19:51:45.109Z,102772.48
2018-11-14T19:54:14.855Z,102778.05
2018-11-14T19:56:44.477Z,102778.81
2018-11-14T19:59:14.230Z,102780.47
2018-11-14T20:01:44.304Z,102781.28
2018-11-14T20:04:15.033Z,102774.12
2018-11-14T20:06:44.803Z,102781.34
2018-11-14T20:09:14.262Z,102777.30
2018-11-14T20:11:43.772Z,102776.27
2018-11-14T20:14:13.371Z,102766.50
2018-11-14T20:19:16.163Z,102780.82
2018-11-14T20:21:45.749Z,102782.39
2018-11-14T20:24:15.291Z,102776.55
2018-11-14T20:26:45.086Z,102781.22
2018-11-14T20:29:14.999Z,102775.04
2018-11-14T20:31:44.730Z,102776.22
2018-11-14T20:34:14.240Z,102767.22
2018-11-14T20:36:43.820Z,102780.61
2018-11-14T20:39:13.745Z,102775.61
2018-11-14T20:41:43.250Z,102777.17
2018-11-14T20:44:12.940Z,102770.52
2018-11-14T20:46:42.514Z,102772.97
2018-11-14T20:49:12.129Z,102769.69
2018-11-14T20:51:41.722Z,102775.16
2018-11-14T20:56:41.139Z,102767.55
2018-11-14T21:01:49.223Z,102769.39
2018-11-14T21:04:18.804Z,102766.98
2018-11-14T21:06:48.370Z,102771.70
2018-11-14T21:09:17.931Z,102749.11
2018-11-14T21:11:47.438Z,102773.05
2018-11-14T21:14:17.023Z,102769.76
2018-11-14T21:16:46.560Z,102769.46
2018-11-14T21:19:16.164Z,102770.08
2018-11-14T21:21:45.679Z,102765.67
2018-11-14T21:24:15.272Z,102765.67
2018-11-14T21:26:55.271Z,102766.22
2018-11-14T21:29:24.951Z,102766.63
2018-11-14T21:31:54.472Z,102770.08
2018-11-14T21:34:24.060Z,102773.48
2018-11-14T21:36:53.645Z,102772.52
2018-11-14T21:39:23.138Z,102775.07
2018-11-14T21:41:55.452Z,102773.35
2018-11-14T21:44:25.046Z,102772.80
2018-11-14T21:46:54.825Z,102761.98
2018-11-14T21:49:27.949Z,102777.29
2018-11-14T21:51:58.573Z,102773.11
2018-11-14T21:54:28.258Z,102774.75
2018-11-14T21:56:58.194Z,102772.30
2018-11-14T21:59:27.804Z,102768.12
2018-11-14T22:01:57.395Z,102765.62
2018-11-14T22:04:26.909Z,102771.91
2018-11-14T22:06:56.622Z,102772.56
2018-11-14T22:09:26.233Z,102773.73
2018-11-14T22:11:55.819Z,102765.19
2018-11-14T22:14:25.344Z,102771.94
2018-11-14T22:16:55.027Z,102768.16
2018-11-14T22:19:24.763Z,102773.75
2018-11-14T22:21:54.578Z,102778.91
2018-11-14T22:24:24.182Z,102773.61
2018-11-14T22:26:53.686Z,102773.80
2018-11-14T22:29:23.334Z,102769.66
2018-11-14T22:31:52.995Z,102777.05
2018-11-14T22:34:22.319Z,102776.91
2018-11-14T22:36:51.683Z,102781.52
2018-11-14T22:39:21.005Z,102774.78
2018-11-14T22:41:50.334Z,102778.06
2018-11-14T22:44:19.703Z,102781.31
2018-11-14T22:46:49.064Z,102778.16
2018-11-14T22:49:18.394Z,102777.17
2018-11-14T22:51:47.765Z,102779.37
2018-11-14T22:54:17.113Z,102776.26
2018-11-14T22:56:47.170Z,102768.81
2018-11-14T22:59:16.554Z,102774.66
2018-11-14T23:01:45.955Z,102772.86
2018-11-14T23:04:15.342Z,102771.50
2018-11-14T23:06:44.758Z,102776.11
2018-11-14T23:09:14.121Z,102769.95
2018-11-14T23:11:43.531Z,102771.58
2018-11-14T23:14:12.869Z,102774.00
2018-11-14T23:16:44.372Z,102772.55
2018-11-14T23:19:13.686Z,102765.39
2018-11-14T23:21:43.050Z,102768.31
2018-11-14T23:24:12.448Z,102766.22
2018-11-14T23:26:41.780Z,102764.66
2018-11-14T23:29:11.159Z,102763.30
2018-11-14T23:31:40.497Z,102761.48
2018-11-14T23:34:09.869Z,102763.62
2018-11-14T23:36:39.259Z,102754.98
2018-11-14T23:39:11.378Z,102751.59
2018-11-14T23:41:40.717Z,102757.27
2018-11-14T23:44:10.330Z,102748.25
2018-11-14T23:46:39.668Z,102750.02
2018-11-14T23:49:08.987Z,102735.30
2018-11-14T23:51:38.355Z,102737.91
2018-11-14T23:54:07.860Z,102738.87
2018-11-14T23:56:37.303Z,102745.06
2018-11-14T23:59:07.033Z,102743.84
